sensor_id;sensor_type;location;lat;lon;timestamp;pressure;altitude;pressure_sealevel;temperature;humidity
63665;BME280;49820;33.966;73.390;2023-08-07T02:29:13;78109.16;;;19.39;100.00
63665;BME280;49820;33.966;73.390;2023-08-07T02:32:05;78123.44;;;20.03;100.00
63665;BME280;49820;33.966;73.390;2023-08-07T02:34:34;78122.91;;;20.43;100.00
63665;BME280;49820;33.966;73.390;2023-08-07T02:37:04;78119.69;;;20.92;100.00
63665;BME280;49820;33.966;73.390;2023-08-07T02:39:53;78108.75;;;21.13;100.00
63665;BME280;49820;33.966;73.390;2023-08-07T02:42:22;78122.91;;;21.35;100.00
63665;BME280;49820;33.966;73.390;2023-08-07T02:44:52;78133.97;;;21.52;100.00
63665;BME280;49820;33.966;73.390;2023-08-07T02:47:21;78127.75;;;21.54;100.00
63665;BME280;49820;33.966;73.390;2023-08-07T02:49:50;78136.06;;;22.01;100.00
63665;BME280;49820;33.966;73.390;2023-08-07T02:52:19;78108.91;;;22.29;100.00
63665;BME280;49820;33.966;73.390;2023-08-07T02:54:48;78127.09;;;22.22;100.00
63665;BME280;49820;33.966;73.390;2023-08-07T02:57:18;78134.34;;;22.25;100.00
63665;BME280;49820;33.966;73.390;2023-08-07T02:59:47;78140.13;;;22.30;100.00
63665;BME280;49820;33.966;73.390;2023-08-07T03:02:16;78149.56;;;22.31;100.00
63665;BME280;49820;33.966;73.390;2023-08-07T03:04:45;78127.53;;;22.35;100.00
63665;BME280;49820;33.966;73.390;2023-08-07T03:07:14;78141.53;;;22.67;100.00
63665;BME280;49820;33.966;73.390;2023-08-07T03:09:47;78143.03;;;23.31;100.00
63665;BME280;49820;33.966;73.390;2023-08-07T03:12:16;78144.72;;;23.45;100.00
63665;BME280;49820;33.966;73.390;2023-08-07T03:14:45;78153.28;;;24.03;100.00
63665;BME280;49820;33.966;73.390;2023-08-07T03:17:15;78150.19;;;24.61;100.00
63665;BME280;49820;33.966;73.390;2023-08-07T03:19:47;78161.63;;;24.81;100.00
63665;BME280;49820;33.966;73.390;2023-08-07T03:22:17;78156.97;;;24.79;100.00
63665;BME280;49820;33.966;73.390;2023-08-07T03:24:47;78158.59;;;25.02;100.00
63665;BME280;49820;33.966;73.390;2023-08-07T03:27:18;78165.78;;;24.00;100.00
63665;BME280;49820;33.966;73.390;2023-08-07T03:29:47;78147.31;;;24.01;100.00
63665;BME280;49820;33.966;73.390;2023-08-07T03:32:18;78145.81;;;23.67;100.00
63665;BME280;49820;33.966;73.390;2023-08-07T03:34:48;78160.66;;;24.76;100.00
63665;BME280;49820;33.966;73.390;2023-08-07T03:37:18;78155.53;;;24.80;100.00
63665;BME280;49820;33.966;73.390;2023-08-07T03:39:50;78152.19;;;24.97;98.50
63665;BME280;49820;33.966;73.390;2023-08-07T03:42:19;78155.72;;;24.95;96.29
63665;BME280;49820;33.966;73.390;2023-08-07T03:44:49;78148.34;;;24.14;94.95
63665;BME280;49820;33.966;73.390;2023-08-07T03:47:18;78148.78;;;24.00;100.00
63665;BME280;49820;33.966;73.390;2023-08-07T03:49:47;78172.22;;;23.60;100.00
63665;BME280;49820;33.966;73.390;2023-08-07T03:52:18;78176.44;;;23.12;100.00
63665;BME280;49820;33.966;73.390;2023-08-07T03:57:34;78170.06;;;24.25;100.00
63665;BME280;49820;33.966;73.390;2023-08-07T04:00:22;78161.44;;;24.40;100.00
63665;BME280;49820;33.966;73.390;2023-08-07T04:03:09;78173.34;;;24.62;100.00
63665;BME280;49820;33.966;73.390;2023-08-07T04:05:39;78168.66;;;24.52;100.00
63665;BME280;49820;33.966;73.390;2023-08-07T04:08:08;78176.53;;;23.93;100.00
63665;BME280;49820;33.966;73.390;2023-08-07T04:10:40;78165.53;;;23.76;100.00
63665;BME280;49820;33.966;73.390;2023-08-07T04:13:10;78177.88;;;24.12;100.00
63665;BME280;49820;33.966;73.390;2023-08-07T04:15:40;78164.16;;;24.40;100.00
63665;BME280;49820;33.966;73.390;2023-08-07T04:18:10;78172.50;;;24.38;100.00
63665;BME280;49820;33.966;73.390;2023-08-07T04:20:41;78168.47;;;24.28;100.00
63665;BME280;49820;33.966;73.390;2023-08-07T04:23:11;78183.94;;;24.75;100.00
63665;BME280;49820;33.966;73.390;2023-08-07T04:25:40;78184.59;;;24.66;100.00
63665;BME280;49820;33.966;73.390;2023-08-07T04:28:09;78173.94;;;24.37;100.00
63665;BME280;49820;33.966;73.390;2023-08-07T04:30:38;78175.78;;;25.18;100.00
63665;BME280;49820;33.966;73.390;2023-08-07T04:33:08;78193.91;;;25.56;100.00
63665;BME280;49820;33.966;73.390;2023-08-07T04:35:37;78164.66;;;26.12;100.00
63665;BME280;49820;33.966;73.390;2023-08-07T04:38:06;78177.06;;;26.85;100.00
63665;BME280;49820;33.966;73.390;2023-08-07T04:40:35;78188.66;;;26.94;84.37
63665;BME280;49820;33.966;73.390;2023-08-07T04:43:04;78181.53;;;26.65;82.41
63665;BME280;49820;33.966;73.390;2023-08-07T04:45:33;78181.66;;;27.27;94.89
63665;BME280;49820;33.966;73.390;2023-08-07T04:48:04;78191.41;;;27.65;100.00
63665;BME280;49820;33.966;73.390;2023-08-07T04:50:33;78200.94;;;27.82;97.83
63665;BME280;49820;33.966;73.390;2023-08-07T04:53:02;78203.28;;;28.09;91.54
63665;BME280;49820;33.966;73.390;2023-08-07T04:55:31;78206.63;;;28.34;69.69
63665;BME280;49820;33.966;73.390;2023-08-07T04:58:01;78201.97;;;28.32;91.69
63665;BME280;49820;33.966;73.390;2023-08-07T05:00:30;78190.06;;;28.58;67.89
63665;BME280;49820;33.966;73.390;2023-08-07T05:02:59;78199.50;;;28.52;63.94
63665;BME280;49820;33.966;73.390;2023-08-07T05:05:30;78195.19;;;28.62;74.56
63665;BME280;49820;33.966;73.390;2023-08-07T05:07:59;78190.69;;;28.73;82.45
63665;BME280;49820;33.966;73.390;2023-08-07T05:10:29;78202.78;;;29.29;84.62
63665;BME280;49820;33.966;73.390;2023-08-07T05:12:59;78208.53;;;29.11;70.84
63665;BME280;49820;33.966;73.390;2023-08-07T05:15:29;78204.63;;;28.56;70.40
63665;BME280;49820;33.966;73.390;2023-08-07T05:18:00;78188.53;;;29.04;76.17
63665;BME280;49820;33.966;73.390;2023-08-07T05:20:29;78216.25;;;28.87;65.36
63665;BME280;49820;33.966;73.390;2023-08-07T05:22:58;78214.53;;;28.83;70.70
63665;BME280;49820;33.966;73.390;2023-08-07T05:25:27;78212.50;;;28.60;82.48
63665;BME280;49820;33.966;73.390;2023-08-07T05:27:56;78221.84;;;26.99;76.61
63665;BME280;49820;33.966;73.390;2023-08-07T05:30:26;78225.00;;;27.10;67.42
63665;BME280;49820;33.966;73.390;2023-08-07T05:32:55;78221.69;;;26.10;69.55
63665;BME280;49820;33.966;73.390;2023-08-07T05:35:24;78208.41;;;24.85;73.73
63665;BME280;49820;33.966;73.390;2023-08-07T05:37:54;78211.66;;;24.96;72.58
63665;BME280;49820;33.966;73.390;2023-08-07T05:40:24;78229.34;;;25.32;74.89
63665;BME280;49820;33.966;73.390;2023-08-07T05:42:53;78225.09;;;24.64;73.08
63665;BME280;49820;33.966;73.390;2023-08-07T05:45:40;78235.06;;;24.76;75.18
63665;BME280;49820;33.966;73.390;2023-08-07T05:48:12;78223.91;;;24.44;83.12
63665;BME280;49820;33.966;73.390;2023-08-07T05:50:42;78230.53;;;24.19;82.69
63665;BME280;49820;33.966;73.390;2023-08-07T05:53:11;78205.81;;;23.20;89.28
63665;BME280;49820;33.966;73.390;2023-08-07T05:55:40;78221.28;;;24.24;85.70
63665;BME280;49820;33.966;73.390;2023-08-07T05:58:11;78217.09;;;25.48;79.42
63665;BME280;49820;33.966;73.390;2023-08-07T06:00:40;78216.78;;;25.52;84.32
63665;BME280;49820;33.966;73.390;2023-08-07T06:03:09;78219.31;;;24.77;81.01
63665;BME280;49820;33.966;73.390;2023-08-07T06:05:39;78208.34;;;24.59;82.85
63665;BME280;49820;33.966;73.390;2023-08-07T06:08:09;78227.09;;;25.34;84.95
63665;BME280;49820;33.966;73.390;2023-08-07T06:10:38;78218.31;;;26.59;89.73
63665;BME280;49820;33.966;73.390;2023-08-07T06:13:07;78218.66;;;27.20;71.68
63665;BME280;49820;33.966;73.390;2023-08-07T06:15:46;78213.28;;;27.03;84.33
63665;BME280;49820;33.966;73.390;2023-08-07T06:18:15;78203.53;;;27.12;72.67
63665;BME280;49820;33.966;73.390;2023-08-07T06:20:44;78207.81;;;27.89;69.17
63665;BME280;49820;33.966;73.390;2023-08-07T06:23:13;78201.34;;;27.93;66.69
63665;BME280;49820;33.966;73.390;2023-08-07T06:25:43;78205.75;;;27.66;65.47
63665;BME280;49820;33.966;73.390;2023-08-07T06:28:12;78207.94;;;27.57;67.34
63665;BME280;49820;33.966;73.390;2023-08-07T06:30:41;78191.53;;;27.87;67.82
63665;BME280;49820;33.966;73.390;2023-08-07T06:33:10;78205.94;;;27.64;63.21
63665;BME280;49820;33.966;73.390;2023-08-07T06:35:40;78199.75;;;27.72;66.74
63665;BME280;49820;33.966;73.390;2023-08-07T06:38:11;78193.38;;;29.19;87.71
63665;BME280;49820;33.966;73.390;2023-08-07T06:40:40;78200.13;;;29.35;62.46
63665;BME280;49820;33.966;73.390;2023-08-07T06:43:09;78181.38;;;27.86;62.05
63665;BME280;49820;33.966;73.390;2023-08-07T06:45:39;78202.94;;;27.03;65.85
63665;BME280;49820;33.966;73.390;2023-08-07T06:48:08;78176.41;;;27.64;66.94
63665;BME280;49820;33.966;73.390;2023-08-07T06:50:38;78191.47;;;27.96;70.59
63665;BME280;49820;33.966;73.390;2023-08-07T06:53:07;78205.13;;;27.65;67.44
63665;BME280;49820;33.966;73.390;2023-08-07T06:55:36;78193.38;;;27.11;68.25
63665;BME280;49820;33.966;73.390;2023-08-07T06:58:05;78199.56;;;28.74;78.94
63665;BME280;49820;33.966;73.390;2023-08-07T07:00:35;78195.63;;;29.69;78.13
63665;BME280;49820;33.966;73.390;2023-08-07T07:03:06;78199.22;;;29.67;68.81
63665;BME280;49820;33.966;73.390;2023-08-07T07:05:38;78188.16;;;30.04;67.94
63665;BME280;49820;33.966;73.390;2023-08-07T07:08:09;78183.16;;;29.91;60.86
63665;BME280;49820;33.966;73.390;2023-08-07T07:10:38;78187.81;;;29.71;59.71
63665;BME280;49820;33.966;73.390;2023-08-07T07:13:07;78182.03;;;29.45;63.34
63665;BME280;49820;33.966;73.390;2023-08-07T07:15:37;78187.00;;;29.94;62.72
63665;BME280;49820;33.966;73.390;2023-08-07T07:18:08;78198.28;;;27.73;65.28
63665;BME280;49820;33.966;73.390;2023-08-07T07:23:27;78205.44;;;26.08;73.59
63665;BME280;49820;33.966;73.390;2023-08-07T07:25:56;78195.50;;;26.78;77.43
63665;BME280;49820;33.966;73.390;2023-08-07T07:28:27;78197.59;;;27.57;71.30
63665;BME280;49820;33.966;73.390;2023-08-07T07:30:56;78193.59;;;29.02;93.81
63665;BME280;49820;33.966;73.390;2023-08-07T07:33:26;78189.03;;;29.29;70.26
63665;BME280;49820;33.966;73.390;2023-08-07T07:36:17;78199.31;;;28.84;66.79
63665;BME280;49820;33.966;73.390;2023-08-07T07:38:47;78189.13;;;27.68;72.71
63665;BME280;49820;33.966;73.390;2023-08-07T07:41:17;78196.28;;;28.50;68.76
63665;BME280;49820;33.966;73.390;2023-08-07T07:43:48;78200.53;;;27.08;71.61
63665;BME280;49820;33.966;73.390;2023-08-07T07:46:17;78183.56;;;25.99;83.23
63665;BME280;49820;33.966;73.390;2023-08-07T07:48:46;78187.72;;;27.13;75.96
63665;BME280;49820;33.966;73.390;2023-08-07T07:54:04;78186.53;;;26.21;87.37
63665;BME280;49820;33.966;73.390;2023-08-07T07:56:35;78196.78;;;25.88;79.41
63665;BME280;49820;33.966;73.390;2023-08-07T07:59:05;78192.75;;;25.87;91.65
63665;BME280;49820;33.966;73.390;2023-08-07T08:01:36;78191.97;;;25.54;87.21
63665;BME280;49820;33.966;73.390;2023-08-07T08:04:06;78178.81;;;24.88;81.31
63665;BME280;49820;33.966;73.390;2023-08-07T08:06:40;78198.25;;;24.75;90.69
63665;BME280;49820;33.966;73.390;2023-08-07T08:09:09;78183.91;;;24.40;94.08
63665;BME280;49820;33.966;73.390;2023-08-07T08:11:39;78171.97;;;24.26;92.61
63665;BME280;49820;33.966;73.390;2023-08-07T08:14:08;78191.56;;;23.84;86.11
63665;BME280;49820;33.966;73.390;2023-08-07T08:16:37;78162.97;;;23.66;92.61
63665;BME280;49820;33.966;73.390;2023-08-07T08:19:06;78177.50;;;23.90;90.85
63665;BME280;49820;33.966;73.390;2023-08-07T08:21:38;78173.88;;;24.19;89.47
63665;BME280;49820;33.966;73.390;2023-08-07T08:24:10;78180.25;;;23.99;92.56
63665;BME280;49820;33.966;73.390;2023-08-07T08:26:43;78172.22;;;23.32;90.63
63665;BME280;49820;33.966;73.390;2023-08-07T08:29:14;78178.81;;;23.35;100.00
63665;BME280;49820;33.966;73.390;2023-08-07T08:31:44;78180.66;;;23.84;100.00
63665;BME280;49820;33.966;73.390;2023-08-07T08:34:31;78166.22;;;25.86;87.61
63665;BME280;49820;33.966;73.390;2023-08-07T08:37:00;78123.63;;;26.69;92.12
63665;BME280;49820;33.966;73.390;2023-08-07T08:39:29;78161.78;;;27.75;77.65
63665;BME280;49820;33.966;73.390;2023-08-07T08:41:59;78166.06;;;27.41;68.24
63665;BME280;49820;33.966;73.390;2023-08-07T08:44:29;78157.75;;;27.50;69.55
63665;BME280;49820;33.966;73.390;2023-08-07T08:47:01;78163.66;;;28.30;65.90
63665;BME280;49820;33.966;73.390;2023-08-07T08:49:37;78154.75;;;27.45;63.52
63665;BME280;49820;33.966;73.390;2023-08-07T08:52:10;78127.34;;;27.60;68.90
63665;BME280;49820;33.966;73.390;2023-08-07T08:54:40;78154.34;;;28.42;88.94
63665;BME280;49820;33.966;73.390;2023-08-07T08:57:11;78165.47;;;28.71;64.68
63665;BME280;49820;33.966;73.390;2023-08-07T08:59:41;78167.22;;;29.64;75.50
63665;BME280;49820;33.966;73.390;2023-08-07T09:02:11;78162.03;;;28.48;61.96
63665;BME280;49820;33.966;73.390;2023-08-07T09:04:40;78161.56;;;29.13;66.99
63665;BME280;49820;33.966;73.390;2023-08-07T09:07:15;78153.75;;;28.64;61.85
63665;BME280;49820;33.966;73.390;2023-08-07T09:09:49;78164.06;;;27.72;62.21
63665;BME280;49820;33.966;73.390;2023-08-07T09:12:29;78163.88;;;26.79;74.59
63665;BME280;49820;33.966;73.390;2023-08-07T09:14:58;78149.19;;;26.26;82.41
63665;BME280;49820;33.966;73.390;2023-08-07T09:20:20;78123.91;;;27.84;66.52
63665;BME280;49820;33.966;73.390;2023-08-07T09:22:50;78140.47;;;27.75;72.14
63665;BME280;49820;33.966;73.390;2023-08-07T09:25:32;78157.94;;;26.44;79.08
63665;BME280;49820;33.966;73.390;2023-08-07T09:28:05;78151.53;;;25.89;78.71
63665;BME280;49820;33.966;73.390;2023-08-07T09:30:35;78151.22;;;27.23;71.67
63665;BME280;49820;33.966;73.390;2023-08-07T09:33:06;78155.06;;;28.19;73.95
63665;BME280;49820;33.966;73.390;2023-08-07T09:35:35;78123.56;;;28.03;65.39
63665;BME280;49820;33.966;73.390;2023-08-07T09:38:05;78133.69;;;28.80;66.72
63665;BME280;49820;33.966;73.390;2023-08-07T09:40:38;78150.28;;;28.57;66.92
63665;BME280;49820;33.966;73.390;2023-08-07T09:43:07;78131.97;;;28.46;68.01
63665;BME280;49820;33.966;73.390;2023-08-07T09:45:40;78140.50;;;29.03;65.93
63665;BME280;49820;33.966;73.390;2023-08-07T09:48:10;78137.47;;;28.46;64.16
63665;BME280;49820;33.966;73.390;2023-08-07T09:50:40;78136.72;;;28.70;67.53
63665;BME280;49820;33.966;73.390;2023-08-07T09:53:13;78140.13;;;28.40;65.51
63665;BME280;49820;33.966;73.390;2023-08-07T09:55:42;78135.63;;;28.82;67.62
63665;BME280;49820;33.966;73.390;2023-08-07T09:58:12;78141.81;;;29.26;76.16
63665;BME280;49820;33.966;73.390;2023-08-07T10:00:46;78134.53;;;29.16;68.11
63665;BME280;49820;33.966;73.390;2023-08-07T10:03:17;78117.59;;;28.76;67.36
63665;BME280;49820;33.966;73.390;2023-08-07T10:05:46;78124.22;;;29.01;68.46
63665;BME280;49820;33.966;73.390;2023-08-07T10:08:15;78131.50;;;29.11;74.75
63665;BME280;49820;33.966;73.390;2023-08-07T10:10:46;78121.19;;;28.97;65.23
63665;BME280;49820;33.966;73.390;2023-08-07T10:13:15;78118.88;;;29.58;63.78
63665;BME280;49820;33.966;73.390;2023-08-07T10:15:51;78123.88;;;28.75;64.76
63665;BME280;49820;33.966;73.390;2023-08-07T10:21:10;78122.13;;;28.19;71.89
63665;BME280;49820;33.966;73.390;2023-08-07T10:23:42;78137.88;;;26.63;81.72
63665;BME280;49820;33.966;73.390;2023-08-07T10:26:13;78110.63;;;27.56;86.88
63665;BME280;49820;33.966;73.390;2023-08-07T10:28:43;78144.44;;;28.45;75.16
63665;BME280;49820;33.966;73.390;2023-08-07T10:31:14;78136.28;;;27.13;77.29
63665;BME280;49820;33.966;73.390;2023-08-07T10:33:48;78117.81;;;26.08;89.21
63665;BME280;49820;33.966;73.390;2023-08-07T10:36:19;78132.97;;;26.07;88.77
63665;BME280;49820;33.966;73.390;2023-08-07T10:38:49;78139.84;;;25.56;91.48
63665;BME280;49820;33.966;73.390;2023-08-07T10:41:25;78103.41;;;26.57;84.26
63665;BME280;49820;33.966;73.390;2023-08-07T10:44:20;78132.69;;;27.78;88.96
63665;BME280;49820;33.966;73.390;2023-08-07T10:46:53;78103.31;;;27.76;78.77
63665;BME280;49820;33.966;73.390;2023-08-07T10:49:38;78126.16;;;27.27;83.16
63665;BME280;49820;33.966;73.390;2023-08-07T10:54:58;78117.13;;;26.57;82.83
63665;BME280;49820;33.966;73.390;2023-08-07T10:57:31;78128.09;;;25.58;95.69
63665;BME280;49820;33.966;73.390;2023-08-07T11:00:02;78122.25;;;25.03;100.00
63665;BME280;49820;33.966;73.390;2023-08-07T11:02:37;78133.03;;;26.63;97.97
63665;BME280;49820;33.966;73.390;2023-08-07T11:05:10;78112.44;;;25.82;98.56
63665;BME280;49820;33.966;73.390;2023-08-07T11:07:40;78096.66;;;25.24;100.00
63665;BME280;49820;33.966;73.390;2023-08-07T11:10:13;78129.47;;;25.16;100.00
63665;BME280;49820;33.966;73.390;2023-08-07T11:12:45;78119.50;;;24.43;100.00
63665;BME280;49820;33.966;73.390;2023-08-07T11:15:14;78136.19;;;24.30;100.00
63665;BME280;49820;33.966;73.390;2023-08-07T11:17:43;78132.69;;;23.87;100.00
63665;BME280;49820;33.966;73.390;2023-08-07T11:20:16;78119.59;;;23.53;100.00
63665;BME280;49820;33.966;73.390;2023-08-07T11:23:06;78127.47;;;23.29;100.00
63665;BME280;49820;33.966;73.390;2023-08-07T11:25:36;78118.56;;;23.11;100.00
63665;BME280;49820;33.966;73.390;2023-08-07T11:28:18;78114.81;;;23.26;100.00
63665;BME280;49820;33.966;73.390;2023-08-07T11:30:51;78116.13;;;23.72;100.00
63665;BME280;49820;33.966;73.390;2023-08-07T11:33:29;78105.88;;;25.03;100.00
63665;BME280;49820;33.966;73.390;2023-08-07T11:35:59;78114.19;;;24.50;100.00
63665;BME280;49820;33.966;73.390;2023-08-07T11:38:33;78110.69;;;25.03;100.00
63665;BME280;49820;33.966;73.390;2023-08-07T11:41:07;78112.22;;;25.43;100.00
63665;BME280;49820;33.966;73.390;2023-08-07T11:43:36;78104.34;;;25.39;100.00
63665;BME280;49820;33.966;73.390;2023-08-07T11:46:10;78095.06;;;24.41;100.00
63665;BME280;49820;33.966;73.390;2023-08-07T11:48:40;78092.00;;;24.19;100.00
63665;BME280;49820;33.966;73.390;2023-08-07T11:51:09;78110.19;;;24.75;100.00
63665;BME280;49820;33.966;73.390;2023-08-07T11:53:40;78084.16;;;24.32;100.00
63665;BME280;49820;33.966;73.390;2023-08-07T11:56:12;78113.06;;;24.38;100.00
63665;BME280;49820;33.966;73.390;2023-08-07T11:58:48;78115.41;;;24.16;100.00
63665;BME280;49820;33.966;73.390;2023-08-07T12:01:19;78090.31;;;23.79;100.00
63665;BME280;49820;33.966;73.390;2023-08-07T12:06:53;78108.38;;;23.57;100.00
63665;BME280;49820;33.966;73.390;2023-08-07T12:09:25;78114.53;;;23.38;100.00
63665;BME280;49820;33.966;73.390;2023-08-07T12:11:58;78115.81;;;23.39;100.00
63665;BME280;49820;33.966;73.390;2023-08-07T12:14:30;78114.13;;;23.16;100.00
63665;BME280;49820;33.966;73.390;2023-08-07T12:17:03;78115.84;;;23.11;100.00
63665;BME280;49820;33.966;73.390;2023-08-07T12:19:36;78129.88;;;22.97;100.00
63665;BME280;49820;33.966;73.390;2023-08-07T12:22:07;78120.72;;;22.92;100.00
63665;BME280;49820;33.966;73.390;2023-08-07T12:24:37;78104.72;;;22.68;100.00
63665;BME280;49820;33.966;73.390;2023-08-07T12:27:06;78129.09;;;22.98;100.00
63665;BME280;49820;33.966;73.390;2023-08-07T12:29:54;78131.78;;;22.70;100.00
63665;BME280;49820;33.966;73.390;2023-08-07T12:32:23;78123.50;;;22.53;100.00
63665;BME280;49820;33.966;73.390;2023-08-07T12:34:52;78114.72;;;22.14;100.00
63665;BME280;49820;33.966;73.390;2023-08-07T12:37:24;78109.91;;;21.95;100.00
63665;BME280;49820;33.966;73.390;2023-08-07T12:39:53;78122.41;;;21.82;100.00
63665;BME280;49820;33.966;73.390;2023-08-07T12:42:27;78119.19;;;21.79;100.00
63665;BME280;49820;33.966;73.390;2023-08-07T12:44:56;78113.19;;;21.68;100.00
63665;BME280;49820;33.966;73.390;2023-08-07T12:47:26;78127.41;;;21.68;100.00
63665;BME280;49820;33.966;73.390;2023-08-07T12:50:14;78119.19;;;21.79;100.00
63665;BME280;49820;33.966;73.390;2023-08-07T12:52:43;78106.22;;;21.60;100.00
63665;BME280;49820;33.966;73.390;2023-08-07T12:55:12;78110.44;;;21.68;100.00
63665;BME280;49820;33.966;73.390;2023-08-07T12:57:43;78101.66;;;21.48;100.00
63665;BME280;49820;33.966;73.390;2023-08-07T13:00:13;78115.78;;;21.40;100.00
63665;BME280;49820;33.966;73.390;2023-08-07T13:02:46;78127.69;;;21.35;100.00
63665;BME280;49820;33.966;73.390;2023-08-07T13:05:16;78114.06;;;21.15;100.00
63665;BME280;49820;33.966;73.390;2023-08-07T13:07:46;78116.78;;;21.15;100.00
63665;BME280;49820;33.966;73.390;2023-08-07T13:10:16;78120.59;;;20.99;100.00
63665;BME280;49820;33.966;73.390;2023-08-07T13:12:47;78128.38;;;20.84;100.00
63665;BME280;49820;33.966;73.390;2023-08-07T13:15:18;78118.84;;;20.74;100.00
63665;BME280;49820;33.966;73.390;2023-08-07T13:17:46;78136.31;;;20.67;100.00
63665;BME280;49820;33.966;73.390;2023-08-07T13:20:19;78135.56;;;20.47;100.00
63665;BME280;49820;33.966;73.390;2023-08-07T13:22:48;78122.50;;;20.28;100.00
63665;BME280;49820;33.966;73.390;2023-08-07T13:25:18;78128.84;;;20.14;100.00
63665;BME280;49820;33.966;73.390;2023-08-07T13:27:46;78134.03;;;20.07;100.00
63665;BME280;49820;33.966;73.390;2023-08-07T13:30:17;78150.66;;;20.12;100.00
63665;BME280;49820;33.966;73.390;2023-08-07T13:32:46;78161.16;;;20.07;100.00
63665;BME280;49820;33.966;73.390;2023-08-07T13:35:17;78147.72;;;19.84;100.00
63665;BME280;49820;33.966;73.390;2023-08-07T13:37:46;78146.16;;;19.76;100.00
63665;BME280;49820;33.966;73.390;2023-08-07T13:40:17;78151.94;;;19.70;100.00
63665;BME280;49820;33.966;73.390;2023-08-07T13:42:46;78154.13;;;19.57;100.00
63665;BME280;49820;33.966;73.390;2023-08-07T13:45:16;78157.94;;;19.39;100.00
63665;BME280;49820;33.966;73.390;2023-08-07T13:47:44;78161.53;;;19.35;100.00
63665;BME280;49820;33.966;73.390;2023-08-07T13:50:14;78163.28;;;19.18;100.00
63665;BME280;49820;33.966;73.390;2023-08-07T13:52:43;78187.28;;;19.13;100.00
63665;BME280;49820;33.966;73.390;2023-08-07T13:55:26;78180.53;;;19.01;100.00
63665;BME280;49820;33.966;73.390;2023-08-07T13:58:02;78177.13;;;18.90;100.00
63665;BME280;49820;33.966;73.390;2023-08-07T14:00:32;78147.09;;;18.60;100.00
63665;BME280;49820;33.966;73.390;2023-08-07T14:03:03;78167.63;;;18.68;100.00
63665;BME280;49820;33.966;73.390;2023-08-07T14:05:32;78173.13;;;18.66;100.00
63665;BME280;49820;33.966;73.390;2023-08-07T14:08:01;78194.84;;;18.77;100.00
63665;BME280;49820;33.966;73.390;2023-08-07T14:10:30;78177.63;;;18.59;100.00
63665;BME280;49820;33.966;73.390;2023-08-07T14:12:59;78161.66;;;18.42;100.00
63665;BME280;49820;33.966;73.390;2023-08-07T14:15:29;78201.38;;;18.69;100.00
63665;BME280;49820;33.966;73.390;2023-08-07T14:17:58;78193.41;;;18.54;100.00
63665;BME280;49820;33.966;73.390;2023-08-07T14:20:29;78191.69;;;18.49;100.00
63665;BME280;49820;33.966;73.390;2023-08-07T14:22:58;78196.06;;;18.44;100.00
63665;BME280;49820;33.966;73.390;2023-08-07T14:25:46;78215.28;;;18.50;100.00
63665;BME280;49820;33.966;73.390;2023-08-07T14:28:19;78213.69;;;18.43;100.00
63665;BME280;49820;33.966;73.390;2023-08-07T14:30:49;78214.28;;;18.33;100.00
63665;BME280;49820;33.966;73.390;2023-08-07T14:33:22;78216.97;;;18.33;100.00
63665;BME280;49820;33.966;73.390;2023-08-07T14:35:51;78219.91;;;18.28;100.00
63665;BME280;49820;33.966;73.390;2023-08-07T14:38:19;78207.97;;;18.13;100.00
63665;BME280;49820;33.966;73.390;2023-08-07T14:40:48;78223.84;;;18.19;100.00
63665;BME280;49820;33.966;73.390;2023-08-07T14:43:17;78211.78;;;18.05;100.00
63665;BME280;49820;33.966;73.390;2023-08-07T14:45:47;78232.19;;;18.15;100.00
63665;BME280;49820;33.966;73.390;2023-08-07T14:48:17;78207.19;;;17.91;100.00
